Time;durP1;ratioP1;P1;durP2;ratioP2;P2;SDS_P1;SDS_P2;PMS_P1;PMS_P2;Temp;Humidity;BMP_temperature;BMP_pressure;BME280_temperature;BME280_humidity;BME280_pressure;Samples;Min_cycle;Max_cycle;Signal;HPM_P1;HPM_P2
2022/05/23 00:02:07;;;;;;;5.05;3.20;;;;;;;21.09;47.45;99080.50;5050350;28;20033;-47
2022/05/23 00:04:34;;;;;;;4.53;3.03;;;;;;;21.26;46.86;99079.22;5050161;28;20130;-47
2022/05/23 00:07:00;;;;;;;6.25;3.35;;;;;;;20.77;48.14;99077.63;5049524;28;20041;-45
2022/05/23 00:09:26;;;;;;;3.38;2.92;;;;;;;20.87;48.22;99077.53;5050129;28;20044;-46
2022/05/23 00:11:52;;;;;;;5.65;3.00;;;;;;;20.88;48.22;99082.63;5050067;28;20390;-47
2022/05/23 00:14:18;;;;;;;4.07;3.13;;;;;;;21.01;47.73;99077.63;5049796;28;20108;-46
2022/05/23 00:16:47;;;;;;;3.92;3.10;;;;;;;20.44;48.94;99080.88;5049432;28;20537;-46
2022/05/23 00:19:14;;;;;;;4.90;3.10;;;;;;;20.74;48.05;99078.22;5050023;28;20473;-46
2022/05/23 00:21:42;;;;;;;7.55;3.40;;;;;;;20.71;48.18;99082.28;5050165;28;20614;-47
2022/05/23 00:24:09;;;;;;;5.35;3.38;;;;;;;20.79;47.95;99086.25;5050934;28;20433;-47
2022/05/23 00:26:34;;;;;;;3.80;2.92;;;;;;;20.64;47.90;99077.22;5049758;28;20059;-46
2022/05/23 00:29:00;;;;;;;3.95;3.03;;;;;;;20.23;49.51;99074.06;5049938;28;20053;-47
2022/05/23 00:31:25;;;;;;;5.70;3.40;;;;;;;20.61;49.67;99074.28;5049934;28;20064;-49
2022/05/23 00:36:35;;;;;;;5.55;3.00;;;;;;;20.40;48.75;99062.84;5033419;28;20060;-46
2022/05/23 00:39:02;;;;;;;5.53;3.05;;;;;;;20.48;49.09;99064.91;5029931;28;20053;-46
2022/05/23 00:44:23;;;;;;;4.75;3.00;;;;;;;20.49;48.22;99067.34;5033463;28;20032;-50
2022/05/23 00:46:55;;;;;;;4.65;3.42;;;;;;;20.56;50.33;99072.41;5034210;28;20105;-46
2022/05/23 00:49:35;;;;;;;5.60;3.28;;;;;;;20.55;48.90;99068.09;5033751;28;20076;-50
2022/05/23 00:52:07;;;;;;;6.30;3.38;;;;;;;20.65;48.30;99059.09;5034314;28;20069;-47
2022/05/23 00:54:39;;;;;;;5.07;3.30;;;;;;;20.46;48.75;99067.09;5033960;28;20072;-49
2022/05/23 00:57:08;;;;;;;7.80;3.50;;;;;;;20.44;49.12;99070.06;5033789;28;20116;-47
2022/05/23 00:59:34;;;;;;;5.95;3.22;;;;;;;20.23;49.13;99064.06;5033711;28;20374;-48
2022/05/23 01:02:03;;;;;;;5.97;3.40;;;;;;;20.46;48.81;99056.28;5033889;28;20409;-48
2022/05/23 01:04:31;;;;;;;4.65;3.55;;;;;;;20.20;49.45;99064.63;5033801;28;20740;-48
2022/05/23 01:06:57;;;;;;;4.55;3.42;;;;;;;20.21;49.25;99060.84;5033881;28;20033;-47
2022/05/23 01:09:26;;;;;;;6.15;3.25;;;;;;;20.46;49.33;99056.28;5032271;28;20056;-48
2022/05/23 01:11:53;;;;;;;3.78;3.10;;;;;;;20.23;49.45;99058.66;5034145;28;20072;-46
2022/05/23 01:14:20;;;;;;;7.10;3.30;;;;;;;20.11;50.08;99056.31;5033848;28;20584;-48
2022/05/23 01:16:45;;;;;;;5.85;3.17;;;;;;;20.20;50.17;99053.84;5033486;28;20032;-47
2022/05/23 01:19:11;;;;;;;5.60;3.28;;;;;;;19.96;49.79;99029.44;5033099;28;20017;-46
2022/05/23 01:21:42;;;;;;;6.97;3.60;;;;;;;19.99;50.20;99041.56;5032984;28;20025;-48
2022/05/23 01:24:16;;;;;;;4.88;3.60;;;;;;;19.96;50.36;99040.25;5033124;28;20025;-47
2022/05/23 01:26:41;;;;;;;5.55;3.83;;;;;;;19.54;51.52;99045.09;5033279;28;20059;-47
2022/05/23 01:29:11;;;;;;;6.43;3.60;;;;;;;19.73;51.18;99050.69;5033544;28;20025;-49
2022/05/23 01:31:38;;;;;;;6.18;3.75;;;;;;;19.60;51.67;99051.28;5032889;28;20405;-46
2022/05/23 01:34:04;;;;;;;5.78;3.60;;;;;;;19.78;51.24;99054.41;5033758;28;20047;-46
2022/05/23 01:36:29;;;;;;;4.72;3.75;;;;;;;19.85;50.94;99046.81;5048743;28;20024;-48
2022/05/23 01:38:55;;;;;;;6.70;3.70;;;;;;;19.64;51.17;99052.31;5053520;28;20451;-49
2022/05/23 01:41:21;;;;;;;6.47;3.92;;;;;;;19.59;51.48;99051.53;5053136;28;20110;-48
2022/05/23 01:43:46;;;;;;;4.53;3.60;;;;;;;20.05;50.92;99057.47;5053431;28;20087;-48
2022/05/23 01:46:12;;;;;;;7.45;3.70;;;;;;;20.26;50.68;99052.69;5052889;28;20384;-45
2022/05/23 01:48:37;;;;;;;6.28;3.80;;;;;;;20.21;49.79;99055.44;5052922;28;20033;-49
2022/05/23 01:51:03;;;;;;;5.80;3.70;;;;;;;20.01;50.83;99047.50;5052483;28;20039;-46
2022/05/23 01:53:28;;;;;;;4.30;3.90;;;;;;;20.31;50.22;99062.63;5052300;28;20036;-45
2022/05/23 01:55:54;;;;;;;5.68;3.45;;;;;;;20.34;49.46;99055.88;5052859;28;20096;-45
2022/05/23 02:01:13;;;;;;;5.22;3.80;;;;;;;20.34;49.49;99061.28;5052979;28;20021;-45
2022/05/23 02:01:15;;;;;;;6.55;3.85;;;;;;;19.99;49.92;99052.38;5052747;28;20630;-48
2022/05/23 02:03:46;;;;;;;5.65;3.90;;;;;;;20.06;49.78;99059.06;5052048;28;20099;-48
2022/05/23 02:06:13;;;;;;;5.50;3.78;;;;;;;20.32;49.32;99048.06;5052695;28;20104;-46
2022/05/23 02:08:38;;;;;;;5.00;3.90;;;;;;;20.59;48.72;99047.50;5053086;28;20108;-46
2022/05/23 02:11:07;;;;;;;5.53;3.60;;;;;;;20.66;48.03;99053.41;5052506;28;20573;-46
2022/05/23 02:13:42;;;;;;;5.22;3.80;;;;;;;20.32;49.17;99045.34;5052139;28;20031;-47
2022/05/23 02:16:07;;;;;;;4.20;3.80;;;;;;;20.28;49.09;99044.31;5052541;28;20075;-47
2022/05/23 02:18:33;;;;;;;4.43;4.00;;;;;;;20.31;49.27;99049.13;5052296;28;20437;-46
2022/05/23 02:20:58;;;;;;;4.85;3.70;;;;;;;20.28;49.55;99042.41;5052415;28;20023;-49
2022/05/23 02:23:24;;;;;;;7.75;4.25;;;;;;;20.39;49.28;99040.41;5052415;28;20090;-47
2022/05/23 02:25:51;;;;;;;7.03;4.22;;;;;;;20.23;50.05;99039.75;5052039;28;20423;-46
2022/05/23 02:28:17;;;;;;;7.47;4.20;;;;;;;19.99;50.09;99033.47;5051998;28;20024;-50
2022/05/23 02:30:43;;;;;;;5.45;4.15;;;;;;;20.06;49.78;99040.16;5052050;28;20055;-46
2022/05/23 02:33:09;;;;;;;5.05;3.97;;;;;;;20.14;49.83;99046.03;5052124;28;20423;-50
2022/05/23 02:35:34;;;;;;;6.22;4.30;;;;;;;20.07;49.76;99041.78;5043757;28;20096;-46
2022/05/23 02:37:59;;;;;;;7.68;4.35;;;;;;;20.19;49.70;99044.09;5032319;28;20017;-47
2022/05/23 02:40:25;;;;;;;8.25;4.10;;;;;;;20.10;50.40;99045.81;5031982;28;20539;-46
2022/05/23 02:42:50;;;;;;;4.78;4.28;;;;;;;20.02;49.88;99041.03;5032362;28;20104;-46
2022/05/23 02:45:16;;;;;;;5.45;4.15;;;;;;;19.66;50.84;99036.66;5031784;28;20025;-48
2022/05/23 02:47:43;;;;;;;5.88;4.47;;;;;;;19.79;50.58;99027.16;5031788;28;20021;-46
2022/05/23 02:50:11;;;;;;;6.95;4.15;;;;;;;20.15;49.95;99039.56;5032004;28;20037;-46
2022/05/23 02:52:38;;;;;;;4.97;4.30;;;;;;;19.93;51.01;99032.72;5032032;28;20063;-46
2022/05/23 02:55:04;;;;;;;5.35;4.40;;;;;;;19.96;51.66;99037.56;5031675;28;20488;-46
2022/05/23 02:57:30;;;;;;;5.28;4.30;;;;;;;19.85;52.50;99039.50;5031528;28;20033;-51
2022/05/23 02:59:56;;;;;;;5.60;4.32;;;;;;;19.82;50.62;99028.47;5032868;28;20437;-48
2022/05/23 03:05:07;;;;;;;6.13;4.20;;;;;;;20.24;49.68;99043.28;5041954;28;20048;-46
2022/05/23 03:07:32;;;;;;;6.53;4.00;;;;;;;20.30;49.41;99034.81;5039131;28;20459;-45
2022/05/23 03:09:58;;;;;;;5.47;4.05;;;;;;;20.26;50.35;99046.50;5031518;28;20026;-48
2022/05/23 03:12:23;;;;;;;5.95;5.03;;;;;;;20.32;49.50;99042.66;5031471;28;20099;-49
2022/05/23 03:14:49;;;;;;;8.23;5.18;;;;;;;20.37;50.29;99048.00;5031364;28;20136;-49
2022/05/23 03:17:14;;;;;;;9.90;5.72;;;;;;;20.58;48.83;99054.00;5030669;28;20025;-46
2022/05/23 03:19:40;;;;;;;5.57;4.13;;;;;;;20.24;50.00;99043.28;5031309;28;20096;-45
2022/05/23 03:27:36;;;;;;;5.45;4.00;;;;;;;20.69;48.88;99050.16;5030818;28;20040;-49
2022/05/23 03:30:04;;;;;;;4.65;3.83;;;;;;;20.53;48.13;99048.66;5012564;28;20054;-48
2022/05/23 03:32:30;;;;;;;5.82;4.07;;;;;;;20.47;48.21;99044.41;5030480;28;20029;-45
2022/05/23 03:34:55;;;;;;;7.13;4.07;;;;;;;20.69;49.47;99055.56;5030650;28;20024;-47
2022/05/23 03:37:21;;;;;;;4.82;4.20;;;;;;;20.91;48.66;99053.41;5030290;28;20021;-46
2022/05/23 03:39:47;;;;;;;7.22;4.40;;;;;;;21.17;47.65;99053.91;5030365;28;20061;-46
2022/05/23 03:42:13;;;;;;;5.95;4.03;;;;;;;21.60;46.86;99051.19;5030648;28;20023;-46
2022/05/23 03:44:39;;;;;;;6.03;4.30;;;;;;;21.96;45.90;99056.06;5030890;28;20029;-45
2022/05/23 03:47:04;;;;;;;7.38;4.13;;;;;;;22.14;45.12;99057.13;5030093;28;20068;-46
2022/05/23 03:49:32;;;;;;;7.45;3.95;;;;;;;22.05;45.55;99057.78;5030454;28;20025;-47
2022/05/23 03:51:58;;;;;;;5.60;4.00;;;;;;;22.34;43.98;99047.88;5029837;28;20029;-47
2022/05/23 03:54:23;;;;;;;7.78;4.95;;;;;;;22.53;44.71;99054.03;5029359;28;20021;-45
2022/05/23 03:56:48;;;;;;;5.07;4.50;;;;;;;22.27;44.06;99058.28;5029416;28;20025;-45
2022/05/23 03:59:14;;;;;;;4.97;4.22;;;;;;;22.42;44.15;99061.53;5029223;28;20022;-45
2022/05/23 04:01:39;;;;;;;4.88;3.72;;;;;;;22.92;44.49;99060.84;5029041;28;20120;-45
2022/05/23 04:04:05;;;;;;;7.25;4.20;;;;;;;23.17;43.16;99058.75;5029480;28;20068;-46
2022/05/23 04:06:31;;;;;;;10.02;3.83;;;;;;;23.03;43.45;99059.56;5029767;28;20025;-45
2022/05/23 04:08:56;;;;;;;8.88;4.47;;;;;;;23.40;41.99;99056.94;5030791;28;20025;-46
2022/05/23 04:11:21;;;;;;;4.80;3.97;;;;;;;23.53;41.74;99056.09;5033731;28;20039;-50
2022/05/23 04:13:47;;;;;;;9.65;3.88;;;;;;;23.67;41.90;99072.34;5050489;28;20082;-48
2022/05/23 04:16:13;;;;;;;6.93;4.50;;;;;;;23.38;41.29;99056.41;5049996;28;20078;-47
2022/05/23 04:18:39;;;;;;;12.88;4.85;;;;;;;23.35;42.29;99065.97;5050107;28;20479;-46
2022/05/23 04:21:05;;;;;;;6.38;4.25;;;;;;;23.28;42.04;99064.78;5050091;28;20021;-46
2022/05/23 04:23:31;;;;;;;8.52;5.22;;;;;;;23.11;42.29;99065.41;5049938;28;20074;-45
2022/05/23 04:26:01;;;;;;;9.43;5.50;;;;;;;23.95;41.15;99066.81;5049849;28;20025;-50
2022/05/23 04:28:26;;;;;;;7.72;4.38;;;;;;;24.58;40.31;99070.47;5049279;28;20441;-49
2022/05/23 04:30:52;;;;;;;9.45;4.68;;;;;;;24.78;38.99;99061.72;5049479;28;20073;-47
2022/05/23 04:36:02;;;;;;;6.32;4.22;;;;;;;25.29;38.32;99061.44;5037637;28;20040;-47
2022/05/23 04:38:27;;;;;;;7.25;4.30;;;;;;;25.21;38.64;99067.59;5029465;28;20021;-47
2022/05/23 04:40:53;;;;;;;5.97;4.00;;;;;;;25.79;37.44;99054.72;5029799;28;20022;-46
2022/05/23 04:43:18;;;;;;;7.82;4.40;;;;;;;25.40;37.89;99061.91;5029185;28;20040;-47
2022/05/23 04:45:44;;;;;;;6.18;3.72;;;;;;;25.52;37.85;99059.38;5029752;28;20021;-46
2022/05/23 04:50:54;;;;;;;7.18;3.95;;;;;;;26.17;36.81;99040.44;5029372;28;20091;-48
2022/05/23 04:53:19;;;;;;;5.90;3.65;;;;;;;26.42;36.20;99052.41;5028881;28;20401;-46
2022/05/23 04:55:45;;;;;;;7.00;3.72;;;;;;;26.37;36.40;99050.66;5029600;28;20033;-48
2022/05/23 04:58:12;;;;;;;5.47;3.50;;;;;;;26.41;36.38;99050.81;5029345;28;20056;-47
2022/05/23 05:00:42;;;;;;;5.18;3.85;;;;;;;26.13;36.33;99043.00;5029536;28;20100;-51
2022/05/23 05:03:08;;;;;;;29.45;23.27;;;;;;;25.96;37.09;99037.59;5029833;28;20113;-47
2022/05/23 05:05:33;;;;;;;23.48;7.68;;;;;;;26.10;36.73;99027.28;5029368;28;20116;-48
2022/05/23 05:08:00;;;;;;;7.93;5.75;;;;;;;25.40;36.94;99035.50;5029520;28;20033;-47
2022/05/23 05:10:26;;;;;;;8.98;3.83;;;;;;;25.51;37.12;99039.50;5029554;28;20090;-49
2022/05/23 05:12:53;;;;;;;9.05;3.55;;;;;;;25.08;38.13;99050.31;5029661;28;20179;-47
2022/05/23 05:15:20;;;;;;;12.70;3.92;;;;;;;25.26;38.29;99041.06;5029633;28;20033;-47
2022/05/23 05:17:45;;;;;;;9.13;3.53;;;;;;;25.77;36.31;99032.44;5029392;28;20449;-47
2022/05/23 05:20:12;;;;;;;10.57;3.38;;;;;;;26.13;36.28;99046.53;5030160;28;20076;-48
2022/05/23 05:22:38;;;;;;;5.13;3.35;;;;;;;26.71;34.82;99038.84;5029908;28;20060;-47
2022/05/23 05:25:05;;;;;;;6.20;3.20;;;;;;;27.39;33.89;99050.84;5029451;28;20345;-47
2022/05/23 05:27:32;;;;;;;7.07;3.70;;;;;;;27.64;33.41;99043.56;5028813;28;20496;-46
2022/05/23 05:29:57;;;;;;;9.20;5.70;;;;;;;28.20;32.53;99041.31;5031056;28;20183;-47
2022/05/23 05:32:32;;;;;;;9.13;4.22;;;;;;;28.62;31.26;99043.13;5032428;28;20524;-51
2022/05/23 05:35:05;;;;;;;8.02;4.20;;;;;;;28.23;31.89;99045.31;5036080;28;20052;-49
2022/05/23 05:37:43;;;;;;;10.40;3.90;;;;;;;28.41;31.89;99046.72;5052283;28;20413;-50
2022/05/23 05:40:12;;;;;;;5.57;3.13;;;;;;;29.19;30.76;99055.13;5052777;28;20017;-48
2022/05/23 05:42:42;;;;;;;10.85;3.00;;;;;;;30.06;29.66;99053.72;5052477;28;20106;-49
2022/05/23 05:45:17;;;;;;;8.25;3.15;;;;;;;29.10;30.31;99057.16;5052550;28;20060;-49
2022/05/23 05:47:46;;;;;;;5.25;3.30;;;;;;;29.28;30.28;99047.53;5051902;28;20108;-47
2022/05/23 05:50:19;;;;;;;9.10;3.20;;;;;;;29.68;29.99;99054.19;5052393;28;20172;-47
2022/05/23 05:52:46;;;;;;;8.82;3.28;;;;;;;28.72;30.71;99050.09;5052331;28;20075;-49
2022/05/23 05:55:12;;;;;;;8.93;2.92;;;;;;;29.11;30.42;99045.84;5052435;28;20557;-48
2022/05/23 05:57:38;;;;;;;5.43;3.03;;;;;;;30.05;29.18;99035.66;5051794;28;20025;-46
2022/05/23 06:00:05;;;;;;;7.90;2.90;;;;;;;30.09;29.16;99046.75;5052013;28;20021;-48
2022/05/23 06:02:30;;;;;;;8.52;2.95;;;;;;;30.67;28.52;99036.06;5052406;28;20071;-48
2022/05/23 06:04:55;;;;;;;12.23;8.13;;;;;;;30.47;28.96;99034.41;5052614;28;20210;-48
2022/05/23 06:12:57;;;;;;;17.95;3.67;;;;;;;31.34;27.67;99029.78;5052465;28;20068;-46
2022/05/23 06:15:23;;;;;;;9.13;3.38;;;;;;;31.08;27.90;99024.91;5051889;28;20056;-46
2022/05/23 06:17:51;;;;;;;6.45;2.95;;;;;;;31.64;27.22;99034.75;5051217;28;20025;-48
2022/05/23 06:20:18;;;;;;;8.13;2.90;;;;;;;31.99;27.00;99034.66;5051686;28;20029;-50
2022/05/23 06:22:43;;;;;;;12.68;3.30;;;;;;;31.77;27.02;99036.19;5051568;28;20500;-48
2022/05/23 06:25:10;;;;;;;4.05;2.92;;;;;;;30.83;27.47;99019.59;5051987;28;20056;-51
2022/05/23 06:27:36;;;;;;;7.35;2.90;;;;;;;30.92;28.06;99036.72;5050847;28;20059;-50
2022/05/23 06:30:04;;;;;;;4.25;3.15;;;;;;;31.30;27.42;99034.41;5051088;28;20049;-46
2022/05/23 06:32:31;;;;;;;11.48;3.40;;;;;;;31.76;26.53;99038.16;5051598;28;20535;-48
2022/05/23 06:34:57;;;;;;;7.65;3.10;;;;;;;30.04;27.91;99034.06;5048854;28;20033;-47
2022/05/23 06:37:23;;;;;;;8.05;3.10;;;;;;;30.15;27.64;99029.66;5031899;28;20017;-48
2022/05/23 06:39:48;;;;;;;6.20;2.75;;;;;;;30.11;28.11;99028.78;5031855;28;20446;-47
2022/05/23 06:42:14;;;;;;;7.68;2.95;;;;;;;30.28;28.19;99011.19;5031708;28;20561;-49
2022/05/23 06:44:39;;;;;;;8.52;2.90;;;;;;;30.65;27.42;99023.88;5032223;28;20025;-51
2022/05/23 06:47:05;;;;;;;4.47;2.90;;;;;;;30.85;26.97;99003.56;5031815;28;20067;-47
2022/05/23 06:49:30;;;;;;;5.82;2.75;;;;;;;30.74;26.39;99011.53;5032011;28;20017;-46
2022/05/23 06:51:56;;;;;;;5.55;2.90;;;;;;;30.83;26.12;99022.34;5030657;28;20013;-48
2022/05/23 06:54:22;;;;;;;5.65;3.03;;;;;;;31.85;26.20;99012.38;5031297;28;20528;-48
2022/05/23 06:56:49;;;;;;;6.85;2.80;;;;;;;30.54;26.12;99013.44;5030753;28;20106;-47
2022/05/23 06:59:15;;;;;;;7.78;3.03;;;;;;;30.73;25.31;99009.97;5030844;28;20095;-47
2022/05/23 07:01:41;;;;;;;8.55;3.00;;;;;;;31.98;25.24;99015.75;5030706;28;20021;-48
2022/05/23 07:04:07;;;;;;;8.82;2.70;;;;;;;32.62;23.93;99016.91;5031381;28;20036;-49
2022/05/23 07:12:20;;;;;;;8.32;2.70;;;;;;;32.12;24.68;99010.53;5019855;28;20190;-48
2022/05/23 07:14:46;;;;;;;4.88;3.00;;;;;;;32.26;24.14;99012.75;5030239;28;20503;-48
2022/05/23 07:17:12;;;;;;;4.07;2.53;;;;;;;32.24;24.24;99006.81;5046585;28;20016;-49
2022/05/23 07:19:41;;;;;;;9.00;2.20;;;;;;;31.60;23.95;99015.41;5050713;28;20024;-47
2022/05/23 07:22:07;;;;;;;6.18;2.45;;;;;;;31.36;24.44;99005.50;5050795;28;20114;-47
2022/05/23 07:24:33;;;;;;;6.72;2.42;;;;;;;31.34;24.87;99010.56;5050147;28;20063;-47
2022/05/23 07:26:59;;;;;;;5.65;2.70;;;;;;;31.66;24.75;99019.50;5050458;28;20468;-48
2022/05/23 07:29:25;;;;;;;6.57;2.20;;;;;;;31.54;23.84;99009.41;5049713;28;20025;-48
2022/05/23 07:31:52;;;;;;;5.18;2.40;;;;;;;31.65;23.94;99011.59;5050354;28;20072;-47
2022/05/23 07:34:18;;;;;;;8.55;2.22;;;;;;;31.79;23.66;99009.13;5049952;28;20465;-47
2022/05/23 07:36:44;;;;;;;5.00;2.15;;;;;;;31.99;22.95;99001.66;5032275;28;20024;-48
2022/05/23 07:39:13;;;;;;;7.72;2.33;;;;;;;31.41;24.08;99021.69;5030937;28;20454;-47
2022/05/23 07:41:41;;;;;;;5.88;2.30;;;;;;;31.74;24.14;99010.22;5030642;28;20030;-48
2022/05/23 07:44:08;;;;;;;5.18;2.40;;;;;;;32.74;23.10;99015.91;5030738;28;20029;-48
2022/05/23 07:46:34;;;;;;;6.15;2.22;;;;;;;32.39;23.27;99024.38;5030399;28;20029;-48
2022/05/23 07:49:00;;;;;;;11.27;2.40;;;;;;;31.44;23.37;99014.69;5030282;28;20035;-49
2022/05/23 07:51:30;;;;;;;4.28;2.20;;;;;;;31.20;23.68;99002.78;5029878;28;20064;-49
2022/05/23 08:02:10;;;;;;;12.07;3.38;;;;;;;32.63;22.87;99009.44;5029929;28;20036;-47
2022/05/23 08:04:36;;;;;;;2.83;1.90;;;;;;;32.73;22.58;99009.63;5030159;28;20029;-47
2022/05/23 08:07:02;;;;;;;5.95;2.10;;;;;;;32.84;22.71;99009.78;5029571;28;20044;-47
2022/05/23 08:09:28;;;;;;;8.25;2.58;;;;;;;32.84;22.11;98990.50;5029835;28;20018;-51
2022/05/23 08:11:53;;;;;;;5.97;2.30;;;;;;;33.27;22.11;99002.13;5029846;28;20026;-49
2022/05/23 08:14:19;;;;;;;4.07;2.47;;;;;;;33.85;21.24;98991.78;5029954;28;20022;-51
2022/05/23 08:16:45;;;;;;;3.72;1.98;;;;;;;32.64;22.55;98989.03;5029145;28;20025;-48
2022/05/23 08:19:11;;;;;;;3.17;2.00;;;;;;;33.22;22.28;98994.19;5029913;28;20036;-48
2022/05/23 08:21:44;;;;;;;3.20;2.00;;;;;;;33.72;21.53;98993.22;5030030;28;20144;-46
2022/05/23 08:24:09;;;;;;;5.78;2.00;;;;;;;33.97;21.70;98994.28;5029670;28;20029;-48
2022/05/23 08:26:35;;;;;;;3.13;2.25;;;;;;;34.46;21.26;98992.38;5029523;28;20032;-49
2022/05/23 08:29:00;;;;;;;16.23;2.95;;;;;;;33.63;21.00;98990.75;5029769;28;20021;-50
2022/05/23 08:31:26;;;;;;;4.63;2.13;;;;;;;33.40;21.01;98985.38;5029740;28;20045;-49
2022/05/23 08:33:51;;;;;;;4.32;1.80;;;;;;;33.11;21.43;98980.28;5030404;28;20406;-47
2022/05/23 08:36:16;;;;;;;4.22;2.35;;;;;;;34.31;21.10;98985.97;5044131;28;20021;-48
2022/05/23 08:38:42;;;;;;;5.50;2.30;;;;;;;34.35;19.96;98977.69;5049541;28;20031;-48
2022/05/23 08:41:21;;;;;;;4.95;2.10;;;;;;;33.99;19.75;98977.38;5049851;28;20457;-50
2022/05/23 08:43:52;;;;;;;6.43;2.40;;;;;;;33.94;19.60;98977.69;5049023;28;20055;-49
2022/05/23 08:46:33;;;;;;;8.20;2.40;;;;;;;31.89;20.37;98967.28;5048763;28;20079;-48
2022/05/23 08:49:10;;;;;;;3.92;1.98;;;;;;;32.05;21.25;98964.44;5049148;28;20036;-49
2022/05/23 08:51:44;;;;;;;7.00;1.90;;;;;;;31.99;21.07;98960.38;5048907;28;20501;-47
2022/05/23 08:54:18;;;;;;;7.57;2.20;;;;;;;32.85;20.76;98969.25;5047755;28;20029;-48
2022/05/23 08:56:50;;;;;;;3.58;1.83;;;;;;;32.76;20.80;98957.72;5049037;28;20166;-48
2022/05/23 08:59:34;;;;;;;6.75;2.03;;;;;;;31.76;21.62;98952.91;5049098;28;20517;-50
2022/05/23 09:02:09;;;;;;;5.88;2.05;;;;;;;31.35;22.61;98952.47;5049056;28;20338;-47
2022/05/23 09:04:42;;;;;;;8.93;2.17;;;;;;;32.24;22.17;98952.56;5050784;28;20044;-47
2022/05/23 09:07:13;;;;;;;4.28;1.70;;;;;;;32.21;21.47;98950.53;5053089;28;20035;-48
2022/05/23 09:09:39;;;;;;;4.97;2.00;;;;;;;31.98;21.44;98933.22;5052680;28;20036;-49
2022/05/23 09:12:14;;;;;;;10.82;2.45;;;;;;;32.01;22.97;98960.81;5052805;28;20488;-50
2022/05/23 09:14:40;;;;;;;4.55;2.40;;;;;;;31.86;24.08;98950.72;5052644;28;20032;-49
2022/05/23 09:17:14;;;;;;;4.25;2.40;;;;;;;32.37;23.61;98950.44;5052179;28;20063;-51
2022/05/23 09:19:51;;;;;;;4.22;2.50;;;;;;;32.78;23.25;98953.41;5052583;28;20028;-48
2022/05/23 09:22:34;;;;;;;4.30;2.45;;;;;;;33.24;23.00;98949.72;5052761;28;20477;-51
2022/05/23 09:25:05;;;;;;;6.65;2.10;;;;;;;32.69;21.82;98945.44;5052765;28;20033;-48
2022/05/23 09:27:31;;;;;;;4.32;2.10;;;;;;;32.18;21.32;98937.53;5052292;28;20226;-49
2022/05/23 09:29:58;;;;;;;5.03;1.98;;;;;;;31.34;21.87;98928.13;5052304;28;20132;-50
2022/05/23 09:32:28;;;;;;;5.32;2.15;;;;;;;31.12;22.71;98924.91;5051963;28;20028;-49
2022/05/23 09:35:14;;;;;;;12.95;2.60;;;;;;;31.35;24.45;98935.97;5052102;28;20056;-50
2022/05/23 09:37:42;;;;;;;3.85;2.40;;;;;;;31.97;24.07;98929.69;5052093;28;20131;-47
2022/05/23 09:40:21;;;;;;;4.63;2.53;;;;;;;32.48;24.28;98939.56;5052085;28;20025;-47
2022/05/23 09:48:24;;;;;;;6.75;2.50;;;;;;;33.18;23.12;98931.94;5052132;28;20074;-47
2022/05/23 09:51:10;;;;;;;5.93;2.63;;;;;;;32.96;23.36;98930.81;5052337;28;20455;-47
2022/05/23 09:53:52;;;;;;;3.30;1.85;;;;;;;31.35;22.90;98929.69;5051696;28;20029;-48
2022/05/23 09:56:34;;;;;;;6.95;1.92;;;;;;;31.92;21.93;98924.47;5051836;28;20029;-50
2022/05/23 09:59:05;;;;;;;3.60;1.85;;;;;;;31.67;22.32;98926.78;5051454;28;20419;-51
2022/05/23 10:01:33;;;;;;;2.90;1.65;;;;;;;31.11;22.41;98917.84;5051928;28;20511;-48
2022/05/23 10:03:59;;;;;;;6.57;1.90;;;;;;;31.77;22.45;98924.22;5051764;28;20119;-47
2022/05/23 10:06:36;;;;;;;3.92;1.70;;;;;;;32.08;21.75;98910.63;5051857;28;20099;-47
2022/05/23 10:09:03;;;;;;;4.43;1.60;;;;;;;31.54;22.43;98913.19;5052006;28;20131;-50
2022/05/23 10:11:34;;;;;;;3.40;2.00;;;;;;;31.77;22.98;98907.72;5051640;28;20029;-48
2022/05/23 10:14:01;;;;;;;3.63;2.15;;;;;;;32.01;22.29;98905.00;5051844;28;20029;-50
2022/05/23 10:16:31;;;;;;;2.88;1.95;;;;;;;32.19;21.80;98894.31;5051048;28;20100;-50
2022/05/23 10:19:03;;;;;;;3.88;2.08;;;;;;;32.88;21.81;98905.97;5051726;28;20025;-47
2022/05/23 10:21:33;;;;;;;2.92;2.22;;;;;;;32.73;22.15;98906.94;5051765;28;20048;-49
2022/05/23 10:24:01;;;;;;;8.48;2.15;;;;;;;33.40;21.06;98894.38;5051877;28;20098;-50
2022/05/23 10:26:29;;;;;;;3.53;2.10;;;;;;;32.42;22.30;98900.53;5051579;28;20091;-50
2022/05/23 10:29:07;;;;;;;5.75;2.05;;;;;;;32.58;21.54;98902.38;5051833;28;20052;-52
2022/05/23 10:31:38;;;;;;;7.95;2.20;;;;;;;31.89;22.70;98894.94;5050951;28;20120;-51
2022/05/23 10:34:12;;;;;;;7.53;2.30;;;;;;;32.26;22.28;98881.44;5050840;28;20028;-49
2022/05/23 10:36:40;;;;;;;3.60;1.83;;;;;;;32.29;22.59;98885.41;5034184;28;20079;-49
2022/05/23 10:42:07;;;;;;;4.68;2.05;;;;;;;32.05;22.83;98872.88;5031964;28;20329;-48
2022/05/23 10:44:33;;;;;;;5.93;2.10;;;;;;;31.98;22.49;98890.00;5031549;28;20127;-48
2022/05/23 10:47:15;;;;;;;4.70;1.95;;;;;;;31.83;22.52;98875.22;5030841;28;20483;-55
2022/05/23 10:50:06;;;;;;;12.93;2.65;;;;;;;32.12;22.12;98872.94;5031257;28;20025;-48
2022/05/23 10:53:01;;;;;;;3.63;2.15;;;;;;;32.74;22.09;98886.47;5031584;28;20037;-46
2022/05/23 10:55:49;;;;;;;2.97;1.88;;;;;;;33.10;22.13;98893.25;5031324;28;20049;-49
2022/05/23 10:58:36;;;;;;;7.55;2.20;;;;;;;32.27;22.46;98884.97;5030646;28;20156;-48
2022/05/23 11:01:36;;;;;;;6.80;1.90;;;;;;;32.41;22.31;98885.22;5031028;28;20033;-48
2022/05/23 11:04:07;;;;;;;8.90;2.00;;;;;;;32.86;21.69;98880.75;5030732;28;20394;-49
2022/05/23 11:06:37;;;;;;;5.85;1.80;;;;;;;32.82;21.75;98874.38;5030991;28;20029;-50
2022/05/23 11:09:30;;;;;;;7.82;1.80;;;;;;;32.50;22.14;98880.22;5031089;28;20037;-47
2022/05/23 11:12:42;;;;;;;6.85;1.90;;;;;;;32.37;21.60;98876.09;5031324;28;20049;-49
2022/05/23 11:15:27;;;;;;;3.13;1.75;;;;;;;32.64;21.94;98868.66;5014943;28;20087;-47
2022/05/23 11:18:08;;;;;;;6.70;2.45;;;;;;;32.58;22.36;98863.81;5030748;28;20028;-47
2022/05/23 11:20:39;;;;;;;2.03;1.83;;;;;;;32.27;22.64;98857.47;5031649;28;20021;-49
2022/05/23 11:23:36;;;;;;;5.22;1.80;;;;;;;32.90;22.61;98855.97;5031752;28;20021;-49
2022/05/23 11:26:13;;;;;;;3.15;2.00;;;;;;;33.06;22.32;98853.03;5031712;28;20469;-37
2022/05/23 11:35:10;;;;;;;4.20;1.92;;;;;;;33.44;21.33;98840.06;5031424;28;20170;-38
2022/05/23 11:37:45;;;;;;;3.17;2.00;;;;;;;33.65;21.96;98840.28;5028901;28;20040;-37
2022/05/23 11:40:25;;;;;;;4.50;1.90;;;;;;;34.00;21.44;98841.75;5030075;28;20025;-37
2022/05/23 11:43:09;;;;;;;3.67;2.20;;;;;;;33.77;20.82;98833.69;5030401;28;20036;-36
2022/05/23 11:48:41;;;;;;;3.38;2.10;;;;;;;33.99;20.61;98831.13;5040623;28;20598;-37
2022/05/23 11:51:12;;;;;;;4.35;1.88;;;;;;;33.88;20.63;98825.50;5041148;28;20041;-37
2022/05/23 11:53:53;;;;;;;8.25;2.00;;;;;;;33.69;20.87;98830.09;5038042;28;20033;-37
2022/05/23 11:56:37;;;;;;;7.68;1.90;;;;;;;32.78;21.90;98834.97;5039122;28;20025;-49
2022/05/23 11:59:06;;;;;;;3.42;1.75;;;;;;;32.39;22.15;98832.50;5039614;28;20032;-49
2022/05/23 12:01:32;;;;;;;4.43;1.88;;;;;;;33.31;20.88;98828.53;5037916;28;20036;-48
2022/05/23 12:04:12;;;;;;;3.38;1.80;;;;;;;33.21;20.86;98816.22;5038440;28;20465;-48
2022/05/23 12:06:41;;;;;;;4.05;1.80;;;;;;;33.15;20.54;98809.47;5038621;28;20034;-47
2022/05/23 12:09:13;;;;;;;4.40;1.90;;;;;;;33.46;21.34;98810.16;5037633;28;20069;-49
2022/05/23 12:11:44;;;;;;;48.97;4.25;;;;;;;32.96;20.82;98824.19;5038125;28;20021;-47
2022/05/23 12:14:28;;;;;;;5.88;1.70;;;;;;;33.09;20.51;98809.00;5035002;28;20449;-50
2022/05/23 12:16:56;;;;;;;3.78;1.70;;;;;;;33.33;20.78;98828.94;5029043;28;20037;-49
2022/05/23 12:19:32;;;;;;;4.40;1.75;;;;;;;33.98;20.72;98816.50;5028967;28;20083;-47
2022/05/23 12:22:15;;;;;;;2.22;1.50;;;;;;;33.97;19.74;98816.91;5037899;28;20044;-49
2022/05/23 12:25:01;;;;;;;3.20;1.73;;;;;;;34.32;19.35;98812.81;5038327;28;20036;-47
2022/05/23 12:27:31;;;;;;;4.28;1.70;;;;;;;34.71;19.36;98815.00;5038027;28;20033;-51
2022/05/23 12:30:22;;;;;;;3.47;1.70;;;;;;;34.68;18.92;98808.28;5038152;28;20033;-47
2022/05/23 12:32:52;;;;;;;3.60;1.80;;;;;;;34.69;18.94;98800.78;5037849;28;20045;-47
2022/05/23 12:35:20;;;;;;;6.95;1.60;;;;;;;34.33;18.89;98800.59;5034272;28;20064;-49
2022/05/23 12:37:58;;;;;;;3.88;1.40;;;;;;;33.80;19.41;98804.56;5036411;28;20075;-47
2022/05/23 12:41:01;;;;;;;2.95;1.80;;;;;;;33.65;20.13;98798.16;5042495;28;20124;-48